Time;durP1;ratioP1;P1;durP2;ratioP2;P2;SDS_P1;SDS_P2;PMS_P1;PMS_P2;Temp;Humidity;BMP_temperature;BMP_pressure;BME280_temperature;BME280_humidity;BME280_pressure;Samples;Min_cycle;Max_cycle;Signal;HPM_P1;HPM_P2
2020/12/04 00:01:33;;;;;;;1.48;1.10;;;7.10;91.10;;;;;;5090764;28;20377;-74
2020/12/04 00:03:59;;;;;;;1.52;1.15;;;6.90;88.20;;;;;;5090288;28;20385;-76
2020/12/04 00:06:25;;;;;;;1.10;1.00;;;8.60;90.90;;;;;;5089919;28;20413;-74
2020/12/04 00:08:51;;;;;;;1.70;1.40;;;8.60;94.90;;;;;;5090466;28;20465;-75
2020/12/04 00:11:16;;;;;;;1.70;1.10;;;8.30;89.60;;;;;;5089856;28;20409;-74
2020/12/04 00:13:42;;;;;;;1.00;0.80;;;7.30;87.90;;;;;;5090664;28;20382;-74
2020/12/04 00:16:08;;;;;;;1.52;1.27;;;7.20;91.90;;;;;;5089951;28;20401;-76
2020/12/04 00:18:33;;;;;;;1.05;0.85;;;6.70;91.00;;;;;;5090359;28;20396;-74
2020/12/04 00:20:59;;;;;;;1.40;1.00;;;6.80;89.30;;;;;;5090550;28;20423;-74
2020/12/04 00:23:25;;;;;;;1.27;0.90;;;6.60;89.30;;;;;;5089739;28;20374;-74
2020/12/04 00:25:50;;;;;;;1.33;1.00;;;7.20;94.50;;;;;;5090528;28;20472;-74
2020/12/04 00:28:16;;;;;;;1.20;0.90;;;6.90;86.40;;;;;;5089549;28;20768;-74
2020/12/04 00:30:42;;;;;;;1.17;0.80;;;7.00;84.50;;;;;;5090487;28;20842;-74
2020/12/04 00:33:08;;;;;;;1.58;0.90;;;7.70;90.70;;;;;;5090395;28;20731;-76
2020/12/04 00:35:33;;;;;;;1.70;1.20;;;7.80;83.30;;;;;;5088221;28;20418;-74
2020/12/04 00:37:59;;;;;;;1.05;0.80;;;8.40;82.10;;;;;;5090163;28;20436;-74
2020/12/04 00:40:25;;;;;;;1.15;0.70;;;7.30;86.20;;;;;;5089301;28;20386;-74
2020/12/04 00:42:50;;;;;;;1.10;1.00;;;7.20;82.60;;;;;;5090031;28;20401;-74
2020/12/04 00:45:16;;;;;;;1.10;0.85;;;7.30;79.80;;;;;;5089401;28;20401;-74
2020/12/04 00:47:42;;;;;;;0.98;0.88;;;7.30;80.40;;;;;;5090304;28;20381;-74
2020/12/04 00:50:08;;;;;;;0.95;0.77;;;7.30;88.90;;;;;;5089700;28;20469;-76
2020/12/04 00:52:34;;;;;;;1.20;0.80;;;7.30;79.60;;;;;;5089949;28;20520;-75
2020/12/04 00:55:00;;;;;;;1.00;0.90;;;9.30;80.40;;;;;;5090031;28;20500;-74
2020/12/04 00:57:25;;;;;;;0.80;0.80;;;8.10;79.70;;;;;;5088208;28;20402;-74
2020/12/04 00:59:51;;;;;;;1.00;0.90;;;9.30;91.30;;;;;;5091302;28;20769;-74
2020/12/04 01:02:17;;;;;;;1.38;0.95;;;7.50;79.60;;;;;;5093197;28;20422;-75
2020/12/04 01:04:43;;;;;;;0.80;0.70;;;8.00;81.40;;;;;;5093983;28;20423;-75
2020/12/04 01:07:09;;;;;;;1.20;0.80;;;7.80;83.10;;;;;;5093767;28;20378;-77
2020/12/04 01:09:35;;;;;;;0.70;0.70;;;8.90;92.20;;;;;;5093294;28;20378;-75
2020/12/04 01:12:01;;;;;;;1.40;1.00;;;7.30;82.20;;;;;;5093720;28;20390;-75
2020/12/04 01:14:27;;;;;;;0.80;0.60;;;6.90;82.90;;;;;;5093104;28;20433;-75
2020/12/04 01:16:53;;;;;;;1.10;0.70;;;7.50;81.30;;;;;;5092512;28;20409;-75
2020/12/04 01:19:19;;;;;;;2.75;0.60;;;8.80;88.50;;;;;;5092718;28;20420;-75
2020/12/04 01:21:47;;;;;;;0.88;0.70;;;7.40;85.20;;;;;;5093615;28;20378;-75
2020/12/04 01:24:13;;;;;;;1.25;0.80;;;7.70;81.70;;;;;;5092879;28;20386;-77
2020/12/04 01:26:39;;;;;;;0.70;0.70;;;7.50;82.70;;;;;;5092200;28;20854;-75
2020/12/04 01:29:06;;;;;;;1.10;0.95;;;9.40;92.20;;;;;;5093558;28;20769;-75
2020/12/04 01:31:31;;;;;;;1.10;0.77;;;7.60;90.80;;;;;;5091269;28;20394;-75
2020/12/04 01:34:00;;;;;;;0.80;0.70;;;7.30;81.00;;;;;;5093266;28;20493;-75
2020/12/04 01:36:35;;;;;;;0.97;0.80;;;8.10;79.80;;;;;;5090998;28;20501;-75
2020/12/04 01:39:00;;;;;;;0.80;0.70;;;7.40;81.90;;;;;;5093250;28;20464;-75
2020/12/04 01:41:26;;;;;;;0.80;0.60;;;8.60;85.40;;;;;;5092360;28;20489;-75
2020/12/04 01:43:52;;;;;;;1.05;0.80;;;8.50;80.00;;;;;;5092943;28;20790;-75
2020/12/04 01:46:18;;;;;;;1.08;0.90;;;8.00;78.60;;;;;;5092155;28;20484;-75
2020/12/04 01:48:44;;;;;;;1.10;0.80;;;7.80;87.90;;;;;;5093161;28;20462;-74
2020/12/04 01:51:10;;;;;;;1.70;0.90;;;7.70;80.50;;;;;;5093031;28;20370;-74
2020/12/04 01:53:38;;;;;;;1.50;0.70;;;8.40;78.40;;;;;;5092694;28;20374;-74
2020/12/04 01:56:04;;;;;;;0.90;0.80;;;7.40;81.10;;;;;;5092879;28;20371;-74
2020/12/04 01:58:30;;;;;;;1.40;0.83;;;7.40;84.30;;;;;;5091952;28;20377;-74
2020/12/04 02:00:55;;;;;;;0.60;0.60;;;7.70;76.90;;;;;;5093276;28;20726;-74
2020/12/04 02:03:21;;;;;;;1.27;0.70;;;7.40;76.80;;;;;;5092065;28;20382;-74
2020/12/04 02:06:18;;;;;;;1.17;0.80;;;7.60;86.80;;;;;;5092777;28;20414;-74
2020/12/04 02:08:48;;;;;;;0.80;0.77;;;7.60;75.00;;;;;;5092906;28;20382;-73
2020/12/04 02:11:23;;;;;;;0.80;0.50;;;7.60;75.00;;;;;;5090806;28;20401;-76
2020/12/04 02:13:50;;;;;;;0.80;0.80;;;7.60;81.10;;;;;;5092358;28;20443;-74
2020/12/04 02:16:18;;;;;;;0.73;0.70;;;7.70;85.10;;;;;;5091778;28;20447;-75
2020/12/04 02:18:44;;;;;;;0.80;0.60;;;8.60;82.10;;;;;;5092817;28;20378;-73
2020/12/04 02:21:12;;;;;;;0.90;0.80;;;8.00;75.30;;;;;;5092533;28;20377;-74
2020/12/04 02:23:39;;;;;;;0.60;0.60;;;7.40;75.80;;;;;;5091516;28;20489;-74
2020/12/04 02:26:07;;;;;;;1.10;0.70;;;7.50;76.10;;;;;;5092426;28;20386;-73
2020/12/04 02:28:39;;;;;;;0.60;0.60;;;7.40;75.80;;;;;;5091597;28;20382;-73
2020/12/04 02:31:06;;;;;;;1.40;0.70;;;7.40;77.20;;;;;;5092496;28;20378;-74
2020/12/04 02:33:35;;;;;;;0.80;0.60;;;9.50;82.40;;;;;;5092089;28;20765;-74
2020/12/04 02:36:02;;;;;;;1.80;0.70;;;7.20;87.30;;;;;;5091538;28;20514;-74
2020/12/04 02:38:28;;;;;;;0.70;0.70;;;7.40;90.70;;;;;;5091449;28;20386;-74
2020/12/04 02:40:54;;;;;;;0.95;0.60;;;7.10;90.60;;;;;;5091870;28;20378;-74
2020/12/04 02:43:23;;;;;;;1.40;0.50;;;7.10;82.80;;;;;;5091084;28;20394;-73
2020/12/04 02:45:49;;;;;;;2.70;0.70;;;7.10;90.50;;;;;;5091915;28;20386;-73
2020/12/04 02:48:16;;;;;;;1.10;0.70;;;6.90;81.10;;;;;;5071224;28;20886;-75
2020/12/04 02:50:42;;;;;;;1.05;0.75;;;7.40;81.50;;;;;;5071287;28;20380;-73
2020/12/04 02:53:08;;;;;;;0.80;0.63;;;7.10;80.90;;;;;;5071686;28;20482;-74
2020/12/04 02:55:34;;;;;;;0.77;0.50;;;7.30;82.20;;;;;;5070766;28;20511;-74
2020/12/04 02:58:00;;;;;;;1.10;0.70;;;6.90;91.60;;;;;;5071435;28;20388;-73
2020/12/04 03:00:26;;;;;;;1.40;0.70;;;6.80;84.10;;;;;;5069434;28;20391;-73
2020/12/04 03:02:52;;;;;;;1.40;0.90;;;7.20;83.10;;;;;;5071212;28;20380;-73
2020/12/04 03:05:18;;;;;;;0.63;0.60;;;7.00;82.80;;;;;;5071009;28;20714;-76
2020/12/04 03:07:43;;;;;;;1.20;0.80;;;8.60;92.40;;;;;;5069754;28;20394;-74
2020/12/04 03:10:09;;;;;;;1.45;0.75;;;7.20;81.30;;;;;;5071184;28;20735;-74
2020/12/04 03:17:54;;;;;;;1.80;0.70;;;7.30;91.60;;;;;;5127290;22;20436;-73
2020/12/04 03:20:20;;;;;;;0.70;0.70;;;7.00;85.40;;;;;;5011645;28;20438;-74
2020/12/04 03:22:45;;;;;;;1.00;0.75;;;7.30;84.20;;;;;;5005672;28;20404;-74
2020/12/04 03:25:11;;;;;;;0.80;0.70;;;7.60;90.30;;;;;;5002313;28;20805;-74
2020/12/04 03:27:36;;;;;;;0.85;0.60;;;7.80;84.10;;;;;;4997680;28;20870;-74
2020/12/04 03:30:03;;;;;;;0.77;0.77;;;7.80;88.40;;;;;;4991684;28;20382;-75
2020/12/04 03:32:29;;;;;;;0.80;0.50;;;7.40;83.60;;;;;;5008800;28;20409;-74
2020/12/04 03:34:56;;;;;;;1.70;0.70;;;9.40;88.20;;;;;;5011341;28;20904;-75
2020/12/04 03:37:21;;;;;;;1.70;0.52;;;7.90;86.50;;;;;;5010537;28;20780;-75
2020/12/04 03:39:47;;;;;;;0.50;0.50;;;7.70;90.10;;;;;;5003405;28;20394;-76
2020/12/04 03:42:13;;;;;;;1.50;0.60;;;8.40;82.30;;;;;;4990788;28;20942;-77
2020/12/04 03:44:39;;;;;;;1.33;0.67;;;8.00;81.40;;;;;;4991638;28;20676;-74
2020/12/04 03:47:04;;;;;;;0.90;0.60;;;8.30;91.10;;;;;;4991709;28;20402;-74
2020/12/04 03:49:30;;;;;;;0.75;0.50;;;8.20;82.40;;;;;;4990710;28;20389;-75
2020/12/04 03:51:56;;;;;;;1.10;0.50;;;8.60;83.50;;;;;;4991398;28;20394;-74
2020/12/04 03:54:21;;;;;;;0.80;0.55;;;10.30;92.60;;;;;;4990271;28;20422;-73
2020/12/04 03:56:47;;;;;;;0.90;0.60;;;8.40;85.60;;;;;;4997564;28;20397;-73
2020/12/04 03:59:13;;;;;;;1.00;0.60;;;9.30;86.10;;;;;;5010085;28;20389;-77
2020/12/04 04:01:39;;;;;;;1.75;0.52;;;9.10;93.90;;;;;;5010779;28;20404;-74
2020/12/04 04:04:05;;;;;;;0.70;0.60;;;9.90;94.20;;;;;;5011090;28;20388;-73
2020/12/04 04:06:30;;;;;;;0.60;0.50;;;9.10;88.00;;;;;;5009978;28;20389;-73
2020/12/04 04:08:56;;;;;;;0.60;0.55;;;8.70;87.50;;;;;;5010969;28;20393;-73
2020/12/04 04:11:22;;;;;;;0.70;0.60;;;8.90;93.10;;;;;;5009821;28;20388;-73
2020/12/04 04:13:47;;;;;;;1.30;0.60;;;8.70;86.90;;;;;;5010491;28;20416;-73
2020/12/04 04:16:13;;;;;;;0.80;0.40;;;8.50;88.10;;;;;;5009979;28;20496;-75
2020/12/04 04:18:39;;;;;;;0.82;0.60;;;9.20;93.00;;;;;;5010610;28;20393;-73
2020/12/04 04:21:09;;;;;;;0.90;0.70;;;8.90;89.50;;;;;;5010972;28;20856;-73
2020/12/04 04:23:35;;;;;;;1.00;0.80;;;8.70;90.30;;;;;;5009965;28;20648;-73
2020/12/04 04:26:01;;;;;;;0.98;0.80;;;9.70;90.50;;;;;;5010555;28;20403;-74
2020/12/04 04:28:27;;;;;;;0.68;0.50;;;8.00;90.50;;;;;;5009754;28;20395;-72
2020/12/04 04:30:52;;;;;;;0.75;0.63;;;8.10;94.60;;;;;;5010694;28;20930;-73
2020/12/04 04:33:18;;;;;;;0.80;0.60;;;7.40;95.80;;;;;;5009621;28;20852;-74
2020/12/04 04:35:44;;;;;;;0.93;0.70;;;8.20;92.30;;;;;;5013508;28;20493;-74
2020/12/04 04:38:09;;;;;;;0.83;0.70;;;8.00;91.30;;;;;;5014551;28;20690;-74
2020/12/04 04:40:38;;;;;;;0.83;0.60;;;7.90;96.50;;;;;;5013725;28;21158;-74
2020/12/04 04:43:06;;;;;;;1.10;0.52;;;7.30;93.50;;;;;;5013974;28;20417;-73
2020/12/04 04:45:33;;;;;;;1.08;0.80;;;7.70;93.60;;;;;;5013695;28;20397;-74
2020/12/04 04:48:04;;;;;;;2.00;0.80;;;7.30;98.20;;;;;;5014136;28;20408;-75
2020/12/04 04:50:30;;;;;;;1.10;0.70;;;8.60;95.10;;;;;;5013671;28;20381;-74
2020/12/04 04:52:56;;;;;;;1.00;0.73;;;7.40;94.60;;;;;;5014191;28;20752;-74
2020/12/04 04:55:22;;;;;;;1.10;0.90;;;8.30;99.90;;;;;;5013478;28;20405;-73
2020/12/04 04:57:48;;;;;;;1.05;0.60;;;7.20;99.60;;;;;;5014440;28;20464;-73
2020/12/04 05:00:14;;;;;;;1.60;0.95;;;9.10;99.40;;;;;;5013852;28;20392;-75
2020/12/04 05:02:46;;;;;;;0.60;0.57;;;7.40;94.20;;;;;;5014518;28;20831;-73
2020/12/04 05:05:12;;;;;;;1.40;0.70;;;7.30;94.00;;;;;;5014355;28;20388;-73
2020/12/04 05:07:37;;;;;;;1.00;0.90;;;9.00;99.40;;;;;;5013598;28;20393;-73
2020/12/04 05:10:15;;;;;;;0.80;0.70;;;7.00;93.30;;;;;;4992307;28;20493;-75
2020/12/04 05:12:42;;;;;;;0.63;0.60;;;7.00;96.50;;;;;;4995007;28;20406;-73
2020/12/04 05:15:24;;;;;;;1.25;0.85;;;7.00;94.80;;;;;;4995789;28;20776;-73
2020/12/04 05:18:12;;;;;;;0.70;0.60;;;7.10;92.60;;;;;;4996787;28;20777;-74
2020/12/04 05:20:42;;;;;;;1.00;0.70;;;7.10;92.50;;;;;;4992205;28;20390;-73
2020/12/04 05:23:08;;;;;;;0.90;0.77;;;7.60;94.60;;;;;;4996236;28;20404;-73
2020/12/04 05:25:39;;;;;;;0.90;0.77;;;7.10;94.60;;;;;;4993540;28;20431;-75
2020/12/04 05:28:16;;;;;;;0.77;0.60;;;6.50;94.60;;;;;;4993971;28;20504;-75
2020/12/04 05:31:06;;;;;;;1.33;0.70;;;7.00;95.50;;;;;;4994937;28;20388;-76
2020/12/04 05:33:32;;;;;;;0.80;0.70;;;7.00;94.30;;;;;;4994229;28;20383;-74
2020/12/04 05:35:58;;;;;;;0.90;0.70;;;7.00;95.10;;;;;;4994152;28;20426;-74
2020/12/04 05:38:24;;;;;;;1.50;0.77;;;8.10;97.50;;;;;;4994518;28;20394;-76
2020/12/04 05:41:02;;;;;;;1.10;0.80;;;9.00;99.90;;;;;;4996863;28;20748;-75
2020/12/04 05:43:31;;;;;;;1.50;0.80;;;7.00;99.90;;;;;;4995901;28;20534;-73
2020/12/04 05:46:24;;;;;;;1.47;0.80;;;7.30;99.90;;;;;;4993057;28;20409;-74
2020/12/04 05:48:56;;;;;;;0.80;0.60;;;6.90;95.40;;;;;;4990148;28;20495;-75
2020/12/04 05:51:27;;;;;;;0.70;0.70;;;7.10;99.90;;;;;;4993917;28;20480;-75
2020/12/04 05:53:53;;;;;;;0.80;0.80;;;7.00;99.90;;;;;;4995121;28;20394;-74
2020/12/04 05:56:20;;;;;;;1.33;1.00;;;6.60;99.90;;;;;;4992971;28;20397;-74
2020/12/04 05:58:47;;;;;;;2.35;0.80;;;6.70;99.90;;;;;;4993070;28;20401;-75
2020/12/04 06:01:19;;;;;;;1.00;0.80;;;7.90;99.90;;;;;;4996937;28;20393;-75
2020/12/04 06:03:54;;;;;;;1.00;0.80;;;6.40;99.90;;;;;;4991079;28;20938;-74
2020/12/04 06:06:27;;;;;;;0.90;0.73;;;6.60;99.90;;;;;;4995653;28;20401;-75
2020/12/04 06:09:04;;;;;;;1.00;0.80;;;6.60;99.90;;;;;;4995061;28;20509;-75
2020/12/04 06:11:33;;;;;;;1.40;0.90;;;7.20;99.90;;;;;;4997403;28;20975;-74
2020/12/04 06:13:59;;;;;;;1.10;0.80;;;6.40;99.90;;;;;;4994892;28;20503;-74
2020/12/04 06:16:25;;;;;;;1.08;0.80;;;6.40;99.90;;;;;;4991512;28;20405;-76
2020/12/04 06:18:51;;;;;;;1.10;0.90;;;6.40;99.90;;;;;;4994106;28;20391;-74
2020/12/04 06:21:59;;;;;;;1.10;1.00;;;7.00;99.90;;;;;;4991485;28;20397;-74
2020/12/04 06:24:25;;;;;;;1.40;1.05;;;6.40;99.90;;;;;;4990817;28;20407;-74
2020/12/04 06:26:50;;;;;;;2.87;0.70;;;6.70;99.90;;;;;;4994170;28;20402;-74
2020/12/04 06:29:19;;;;;;;2.40;1.10;;;6.70;99.90;;;;;;4992567;28;20879;-74
2020/12/04 06:31:45;;;;;;;1.10;0.80;;;6.60;99.90;;;;;;4994633;28;20422;-74
2020/12/04 06:34:19;;;;;;;1.10;0.90;;;6.50;99.90;;;;;;4991866;28;20496;-74
2020/12/04 06:36:46;;;;;;;1.15;0.90;;;7.90;99.90;;;;;;4992438;28;20481;-75
2020/12/04 06:39:31;;;;;;;2.47;0.90;;;7.20;99.90;;;;;;4993035;28;20400;-75
2020/12/04 06:42:00;;;;;;;0.88;0.70;;;7.50;99.90;;;;;;4995708;28;20714;-74
2020/12/04 06:44:27;;;;;;;0.85;0.80;;;8.30;99.90;;;;;;4992037;28;20898;-74
2020/12/04 06:46:57;;;;;;;1.38;0.70;;;6.60;99.90;;;;;;4994870;28;20978;-76
2020/12/04 06:52:12;;;;;;;0.87;0.70;;;6.70;99.90;;;;;;5010776;28;20392;-75
2020/12/04 06:54:40;;;;;;;1.00;0.90;;;6.70;99.90;;;;;;5009717;28;20463;-75
2020/12/04 06:57:07;;;;;;;3.10;0.98;;;6.40;99.90;;;;;;5010421;28;20393;-75
2020/12/04 06:59:43;;;;;;;1.20;0.98;;;7.40;99.90;;;;;;5000568;28;20394;-75
2020/12/04 07:02:20;;;;;;;1.75;0.98;;;6.90;99.90;;;;;;4991122;28;20414;-75
2020/12/04 07:04:54;;;;;;;5.68;1.10;;;6.20;99.90;;;;;;4990164;28;20464;-76
2020/12/04 07:07:21;;;;;;;2.20;1.10;;;6.60;99.90;;;;;;4990554;28;20429;-76
2020/12/04 07:10:01;;;;;;;1.33;0.90;;;6.20;99.90;;;;;;4990300;28;20403;-76
2020/12/04 07:12:28;;;;;;;1.50;0.90;;;6.00;99.90;;;;;;4990026;28;20398;-77
2020/12/04 07:14:56;;;;;;;1.45;0.80;;;6.90;99.90;;;;;;4972772;28;20414;-77
2020/12/04 07:17:24;;;;;;;1.73;0.80;;;6.20;99.90;;;;;;4992909;28;20802;-77
2020/12/04 07:19:52;;;;;;;1.00;0.70;;;7.00;99.90;;;;;;4999407;28;20384;-75
2020/12/04 07:22:19;;;;;;;1.10;0.97;;;6.40;99.90;;;;;;5001200;28;20554;-76
2020/12/04 07:24:46;;;;;;;1.17;0.70;;;6.00;99.90;;;;;;4999629;28;21469;-76
2020/12/04 07:27:14;;;;;;;0.80;0.77;;;6.30;99.90;;;;;;4999493;28;20456;-76
2020/12/04 07:29:40;;;;;;;1.30;0.80;;;;;;;;;;4998164;28;20735;-76
2020/12/04 07:32:06;;;;;;;1.00;0.70;;;6.10;99.90;;;;;;5000856;28;20468;-76
2020/12/04 07:34:36;;;;;;;0.75;0.68;;;7.30;99.90;;;;;;4998248;28;20434;-76
2020/12/04 07:37:04;;;;;;;0.90;0.70;;;6.10;99.90;;;;;;4999247;28;20471;-76
2020/12/04 07:39:38;;;;;;;0.60;0.50;;;6.90;99.90;;;;;;4995573;28;20390;-76
2020/12/04 07:42:05;;;;;;;1.60;0.70;;;6.10;99.90;;;;;;4991408;28;20487;-76
2020/12/04 07:44:42;;;;;;;1.33;0.68;;;7.60;99.90;;;;;;5001197;28;20386;-76
2020/12/04 07:47:08;;;;;;;0.57;0.55;;;;;;;;;;4997895;28;20398;-76
2020/12/04 07:49:36;;;;;;;1.38;0.82;;;6.00;99.90;;;;;;4995789;28;20384;-75
2020/12/04 07:52:11;;;;;;;0.80;0.80;;;6.30;99.90;;;;;;4999397;28;20398;-75
2020/12/04 07:54:38;;;;;;;1.10;0.93;;;6.20;99.90;;;;;;4992944;28;20509;-75
2020/12/04 07:57:05;;;;;;;2.22;0.82;;;7.90;99.90;;;;;;5010881;28;20786;-75
2020/12/04 07:59:32;;;;;;;0.80;0.60;;;6.20;99.90;;;;;;5009890;28;20733;-76
2020/12/04 08:02:00;;;;;;;1.02;0.70;;;6.50;99.90;;;;;;5010836;28;20388;-72
2020/12/04 08:04:30;;;;;;;1.08;0.70;;;6.00;99.90;;;;;;5009055;28;20420;-75
2020/12/04 08:07:10;;;;;;;1.17;1.00;;;5.80;99.90;;;;;;5009308;28;20900;-76
2020/12/04 08:09:38;;;;;;;1.10;0.80;;;5.90;99.90;;;;;;5009187;28;20891;-76
2020/12/04 08:12:09;;;;;;;0.90;0.60;;;6.00;99.90;;;;;;5010791;28;20428;-75
2020/12/04 08:14:37;;;;;;;1.42;0.85;;;6.50;99.90;;;;;;5004192;28;20426;-76
2020/12/04 08:17:06;;;;;;;0.80;0.80;;;6.80;99.90;;;;;;4990908;28;20417;-75
2020/12/04 08:19:34;;;;;;;1.90;0.88;;;5.70;99.90;;;;;;4988486;28;20500;-74
2020/12/04 08:22:02;;;;;;;1.60;1.00;;;6.30;99.90;;;;;;4991039;28;20413;-74
2020/12/04 08:24:30;;;;;;;1.15;0.80;;;6.10;99.90;;;;;;4990533;28;20457;-76
2020/12/04 08:27:14;;;;;;;1.10;0.73;;;6.50;99.90;;;;;;4991051;28;20382;-74
2020/12/04 08:29:48;;;;;;;0.77;0.77;;;;;;;;;;4990588;28;20408;-74
2020/12/04 08:32:22;;;;;;;1.50;1.00;;;6.10;99.90;;;;;;5009552;28;20376;-74
2020/12/04 08:34:49;;;;;;;2.00;0.90;;;6.20;99.90;;;;;;5009807;28;20500;-74
2020/12/04 08:37:17;;;;;;;1.57;1.07;;;6.10;99.90;;;;;;5010970;28;20472;-74
2020/12/04 08:39:48;;;;;;;2.22;0.70;;;6.10;99.90;;;;;;5009887;28;20381;-74
2020/12/04 08:42:19;;;;;;;0.60;0.60;;;6.10;99.90;;;;;;5010295;28;20393;-74
2020/12/04 08:45:08;;;;;;;1.17;0.80;;;6.10;99.90;;;;;;5009893;28;20397;-74
2020/12/04 08:47:38;;;;;;;0.70;0.70;;;6.10;99.90;;;;;;5010185;28;20745;-75
2020/12/04 08:50:11;;;;;;;0.85;0.80;;;6.00;99.90;;;;;;5010863;28;20407;-74
2020/12/04 08:52:41;;;;;;;1.60;1.10;;;6.20;99.90;;;;;;5010180;28;20390;-74
2020/12/04 08:55:19;;;;;;;1.57;1.40;;;6.30;99.90;;;;;;5010754;28;20432;-74
2020/12/04 08:57:46;;;;;;;3.05;2.40;;;6.30;99.90;;;;;;5008418;28;20389;-75
2020/12/04 09:00:15;;;;;;;4.90;2.10;;;6.10;99.90;;;;;;5009301;28;20401;-75
2020/12/04 09:02:41;;;;;;;2.25;1.67;;;6.20;99.90;;;;;;5009890;28;20435;-75
2020/12/04 09:05:09;;;;;;;3.63;1.90;;;6.20;99.90;;;;;;5010311;28;20902;-75
2020/12/04 09:07:35;;;;;;;2.47;1.37;;;6.20;99.90;;;;;;5009845;28;20417;-74
2020/12/04 09:10:02;;;;;;;1.40;1.30;;;6.00;99.90;;;;;;5010720;28;20428;-74
2020/12/04 09:12:28;;;;;;;2.20;1.20;;;6.20;99.90;;;;;;5010276;28;20431;-76
2020/12/04 09:14:53;;;;;;;2.30;1.40;;;6.20;99.90;;;;;;5008703;28;20412;-75
2020/12/04 09:17:19;;;;;;;1.60;1.47;;;7.40;99.90;;;;;;5010017;28;20773;-75
2020/12/04 09:19:45;;;;;;;3.17;2.65;;;6.70;99.90;;;;;;5009703;28;20861;-74
2020/12/04 09:22:15;;;;;;;3.70;2.47;;;6.70;99.90;;;;;;5013457;28;20864;-74
2020/12/04 09:24:42;;;;;;;2.83;2.22;;;6.60;99.90;;;;;;5013137;28;20397;-74
2020/12/04 09:27:08;;;;;;;2.58;2.15;;;8.10;99.90;;;;;;5013846;28;20435;-74
2020/12/04 09:29:35;;;;;;;2.40;2.20;;;6.80;99.90;;;;;;5013108;28;20804;-75
2020/12/04 09:32:27;;;;;;;2.30;2.10;;;6.30;99.90;;;;;;4996100;28;20478;-75
2020/12/04 09:34:53;;;;;;;2.50;2.10;;;6.30;99.90;;;;;;4991747;28;20437;-75
2020/12/04 09:37:28;;;;;;;3.30;2.60;;;6.30;99.90;;;;;;4994090;28;20381;-75
2020/12/04 09:40:00;;;;;;;2.60;1.97;;;6.00;99.90;;;;;;4993318;28;20866;-75
2020/12/04 09:42:27;;;;;;;2.00;1.73;;;6.90;99.90;;;;;;4993717;28;20720;-75
2020/12/04 09:44:54;;;;;;;2.20;1.88;;;6.10;99.90;;;;;;4993300;28;20389;-75
2020/12/04 09:47:21;;;;;;;3.15;1.95;;;6.30;99.90;;;;;;4993982;28;20413;-75
2020/12/04 09:49:47;;;;;;;2.45;2.03;;;6.30;99.90;;;;;;4992951;28;20879;-75
2020/12/04 09:52:14;;;;;;;4.80;2.30;;;6.90;99.90;;;;;;4993550;28;20477;-75
2020/12/04 09:54:43;;;;;;;2.37;1.90;;;6.50;99.90;;;;;;4992822;28;20458;-75
2020/12/04 09:57:10;;;;;;;2.15;1.95;;;6.70;99.90;;;;;;4993806;28;20402;-74
2020/12/04 09:59:36;;;;;;;3.23;2.50;;;7.30;99.90;;;;;;4992809;28;20390;-76
2020/12/04 10:02:03;;;;;;;3.17;2.10;;;8.50;99.90;;;;;;4993864;28;20386;-74
2020/12/04 10:04:30;;;;;;;2.30;2.10;;;6.90;99.90;;;;;;4993651;28;20391;-75
2020/12/04 10:06:57;;;;;;;3.40;2.80;;;7.20;99.90;;;;;;4992534;28;20452;-74
2020/12/04 10:09:23;;;;;;;4.35;3.25;;;6.90;99.90;;;;;;4993584;28;20869;-74
2020/12/04 10:11:49;;;;;;;5.25;4.10;;;6.70;99.90;;;;;;4992634;28;20739;-74
2020/12/04 10:14:16;;;;;;;5.43;4.18;;;7.10;99.90;;;;;;4992171;28;20415;-74
2020/12/04 10:16:44;;;;;;;4.93;3.83;;;6.60;99.90;;;;;;5008720;28;20515;-75
2020/12/04 10:19:12;;;;;;;5.03;3.73;;;6.60;99.90;;;;;;5012885;28;20381;-74
2020/12/04 10:21:37;;;;;;;7.93;3.90;;;6.50;99.90;;;;;;5011838;28;20401;-75
2020/12/04 10:24:05;;;;;;;5.00;4.10;;;6.40;99.90;;;;;;5011435;28;20797;-75
2020/12/04 10:26:31;;;;;;;4.80;3.65;;;6.20;99.90;;;;;;5012803;28;20389;-74
2020/12/04 10:28:57;;;;;;;4.97;3.50;;;6.70;99.90;;;;;;5012247;28;20531;-75
2020/12/04 10:31:24;;;;;;;4.43;3.77;;;6.40;99.90;;;;;;5012335;28;20853;-74
2020/12/04 10:33:50;;;;;;;4.80;4.07;;;6.30;99.90;;;;;;5010006;28;20443;-75
2020/12/04 10:36:15;;;;;;;5.60;4.40;;;5.90;99.90;;;;;;5012096;28;20405;-74
2020/12/04 10:38:42;;;;;;;4.37;3.93;;;6.10;99.90;;;;;;5011877;28;20389;-75
2020/12/04 10:41:08;;;;;;;6.13;3.60;;;6.50;99.90;;;;;;5012272;28;20381;-75
2020/12/04 10:43:34;;;;;;;4.30;3.03;;;6.00;99.90;;;;;;5010848;28;20385;-77
2020/12/04 10:46:00;;;;;;;7.20;3.97;;;6.60;99.90;;;;;;5010410;28;20396;-74
2020/12/04 10:48:25;;;;;;;4.00;3.53;;;6.10;99.90;;;;;;5012379;28;20794;-74
2020/12/04 10:50:51;;;;;;;5.37;3.63;;;6.10;99.90;;;;;;5010328;28;20535;-75
2020/12/04 10:53:18;;;;;;;5.10;3.43;;;6.00;99.90;;;;;;5012460;28;20392;-75
2020/12/04 10:55:44;;;;;;;3.70;3.00;;;5.80;99.90;;;;;;5011372;28;20408;-75
2020/12/04 10:58:11;;;;;;;4.05;2.97;;;6.00;99.90;;;;;;5012497;28;20377;-74
2020/12/04 11:00:37;;;;;;;4.60;3.00;;;5.90;99.90;;;;;;5009941;28;20525;-77
2020/12/04 11:05:42;;;;;;;3.13;2.30;;;6.10;99.90;;;;;;5012115;28;20845;-74
2020/12/04 11:08:09;;;;;;;2.22;1.90;;;;;;;;;;5012214;28;20843;-75
2020/12/04 11:10:35;;;;;;;3.90;1.90;;;6.50;99.90;;;;;;5011700;28;20733;-74
2020/12/04 11:13:04;;;;;;;3.50;1.67;;;6.20;99.90;;;;;;5010151;28;20440;-73
2020/12/04 11:15:30;;;;;;;2.40;1.70;;;6.60;99.90;;;;;;5011538;28;20714;-75
2020/12/04 11:17:56;;;;;;;2.60;2.00;;;6.50;99.90;;;;;;5009432;28;20454;-74
2020/12/04 11:20:23;;;;;;;2.45;1.90;;;6.40;99.90;;;;;;5011881;28;20487;-74
2020/12/04 11:22:50;;;;;;;2.95;2.40;;;6.90;99.90;;;;;;5009878;28;20385;-74
2020/12/04 11:25:17;;;;;;;3.20;2.70;;;6.80;99.90;;;;;;5010543;28;20408;-74
2020/12/04 11:27:46;;;;;;;3.03;2.15;;;6.10;99.90;;;;;;5010865;28;20396;-74
2020/12/04 11:30:14;;;;;;;4.28;2.30;;;6.50;99.90;;;;;;5011629;28;20389;-74
2020/12/04 11:32:40;;;;;;;4.47;2.53;;;6.10;99.90;;;;;;5010921;28;20384;-77
2020/12/04 11:35:08;;;;;;;3.40;2.50;;;6.60;99.90;;;;;;5010300;28;20423;-74
2020/12/04 11:37:35;;;;;;;2.83;2.20;;;6.30;99.90;;;;;;5011202;28;20392;-75
2020/12/04 11:40:02;;;;;;;2.60;2.40;;;7.70;99.90;;;;;;5010803;28;20385;-75
2020/12/04 11:42:28;;;;;;;2.00;1.60;;;6.10;99.90;;;;;;5011136;28;20455;-73
2020/12/04 11:44:55;;;;;;;2.50;2.20;;;7.80;99.90;;;;;;5010525;28;20381;-74
2020/12/04 11:47:21;;;;;;;2.97;2.00;;;6.30;99.90;;;;;;5011445;28;20419;-74
2020/12/04 11:49:47;;;;;;;2.20;1.80;;;6.20;99.90;;;;;;5010579;28;20438;-74
2020/12/04 11:52:12;;;;;;;2.92;1.92;;;6.40;99.90;;;;;;5011039;28;20385;-74
2020/12/04 11:54:38;;;;;;;3.35;1.80;;;7.30;99.90;;;;;;5011020;28;20476;-76
2020/12/04 11:57:04;;;;;;;2.20;1.60;;;8.10;99.90;;;;;;5010438;28;20421;-74
2020/12/04 11:59:29;;;;;;;3.88;1.80;;;6.30;99.90;;;;;;5011643;28;20729;-74
2020/12/04 12:01:56;;;;;;;1.90;1.40;;;7.10;99.90;;;;;;5010544;28;20377;-74
2020/12/04 12:04:22;;;;;;;1.70;1.50;;;7.00;99.90;;;;;;5011197;28;20393;-74
2020/12/04 12:06:48;;;;;;;2.03;1.80;;;7.00;99.90;;;;;;5010422;28;20876;-74
2020/12/04 12:09:14;;;;;;;2.00;1.50;;;6.30;99.90;;;;;;5011099;28;20487;-74
2020/12/04 12:11:39;;;;;;;2.90;2.00;;;6.80;99.90;;;;;;5010891;28;20853;-76
2020/12/04 12:14:05;;;;;;;1.88;1.67;;;6.40;99.90;;;;;;5010583;28;20876;-74
2020/12/04 12:16:31;;;;;;;1.73;1.40;;;7.60;99.90;;;;;;5010783;28;20392;-74
2020/12/04 12:18:56;;;;;;;1.67;1.23;;;6.30;99.90;;;;;;5010343;28;20737;-74
2020/12/04 12:21:24;;;;;;;1.70;1.30;;;7.10;99.90;;;;;;5011197;28;20412;-74
2020/12/04 12:23:50;;;;;;;2.38;1.42;;;6.40;99.90;;;;;;5010163;28;20455;-74
2020/12/04 12:26:15;;;;;;;1.97;1.50;;;6.60;99.90;;;;;;5010717;28;20392;-74
2020/12/04 12:28:41;;;;;;;2.00;1.80;;;7.00;99.90;;;;;;5010288;28;20387;-76
2020/12/04 12:31:07;;;;;;;2.30;1.80;;;6.30;99.90;;;;;;5000032;28;20486;-74
2020/12/04 12:33:33;;;;;;;2.20;1.70;;;6.50;99.90;;;;;;4991306;28;20393;-74
2020/12/04 12:35:58;;;;;;;4.18;2.13;;;6.70;99.90;;;;;;4990348;28;20445;-75
2020/12/04 12:38:24;;;;;;;2.95;2.30;;;6.40;99.90;;;;;;4991246;28;20461;-74
2020/12/04 12:40:50;;;;;;;2.08;1.80;;;7.50;99.90;;;;;;4990610;28;20395;-74
2020/12/04 12:43:16;;;;;;;2.30;2.00;;;6.50;99.90;;;;;;4996475;28;20377;-74
2020/12/04 12:45:42;;;;;;;3.65;2.42;;;8.40;99.90;;;;;;5003676;28;20473;-77
2020/12/04 12:48:07;;;;;;;3.13;2.25;;;7.00;99.90;;;;;;5000458;28;20484;-76
2020/12/04 12:50:34;;;;;;;2.10;1.90;;;6.40;99.90;;;;;;4997539;28;20481;-76
2020/12/04 12:53:00;;;;;;;2.67;2.07;;;6.50;99.90;;;;;;5006757;28;20385;-76
2020/12/04 12:55:25;;;;;;;3.42;2.20;;;7.70;99.90;;;;;;5011228;28;20474;-76
2020/12/04 12:57:51;;;;;;;3.50;2.30;;;6.90;99.90;;;;;;5013380;28;20492;-76
2020/12/04 13:00:17;;;;;;;3.97;2.80;;;8.10;99.90;;;;;;5013856;28;20387;-76
2020/12/04 13:02:43;;;;;;;4.03;2.30;;;6.40;99.90;;;;;;5013693;28;20539;-80
2020/12/04 13:07:53;;;;;;;2.90;2.00;;;6.40;99.90;;;;;;5013549;28;20384;-75
2020/12/04 13:10:19;;;;;;;2.88;2.20;;;6.40;99.90;;;;;;5014194;28;20734;-75
2020/12/04 13:12:48;;;;;;;3.50;2.20;;;6.40;99.90;;;;;;5013692;28;20381;-78
2020/12/04 13:15:13;;;;;;;3.30;2.40;;;6.40;99.90;;;;;;5014062;28;20428;-74